Hoback Junction, Wyoming
Current Conditions -  °F | °C
As of 11:55 PM on Sunday 21 Dec 2014 (Local Time) from KJAC Reporting Station
Broken Clouds Broken Clouds  
Wind Chill: -2°   Ceiling: 4500
Heat Index:   Visibility: 10mi
Dew Point: -7°   Wind: 7mph
Humidity: 56%   Direction: 280°W
Pressure: 29.87"   Gusts: 25mph
Location:  43.4143°N, 110.582°W
Report Text: KJAC 220655Z 28006G22KT 10SM FEW018 SCT033 BKN045 01/M07 A2987 RMK AO1
Loading
Personal Weather Stations






























Interactive Weather Map New forecast layout! Learn more

10-Day Weather Forecast

Advertisements
Track Severe Weather on mobile